Time;durP1;ratioP1;P1;durP2;ratioP2;P2;SDS_P1;SDS_P2;PMS_P1;PMS_P2;Temp;Humidity;BMP_temperature;BMP_pressure;BME280_temperature;BME280_humidity;BME280_pressure;Samples;Min_cycle;Max_cycle;Signal;HPM_P1;HPM_P2
2023/09/08 00:00:43;;;;;;;;;;;;;;;;;;5082927;28;20382;-62
2023/09/08 00:03:09;;;;;;;;;;;;;;;;;;5084869;28;20016;-62
2023/09/08 00:05:34;;;;;;;;;;;;;;;;;;5083160;28;19916;-62
2023/09/08 00:08:00;;;;;;;;;;;;;;;;;;5080706;28;19960;-62
2023/09/08 00:10:26;;;;;;;;;;;;;;;;;;5078995;28;20000;-62
2023/09/08 00:12:52;;;;;;;;;;;;;;;;;;5091069;28;19916;-62
2023/09/08 00:15:18;;;;;;;;;;;;;;;;;;5090429;28;20015;-62
2023/09/08 00:17:47;;;;;;;;;;;;;;;;;;5079090;28;20423;-62
2023/09/08 00:20:13;;;;;;;;;;;;;;;;;;5089105;28;19916;-62
2023/09/08 00:22:39;;;;;;;;;;;;;;;;;;5091367;28;20304;-62
2023/09/08 00:25:05;;;;;;;;;;;;;;;;;;5090640;28;19963;-62
2023/09/08 00:27:31;;;;;;;;;;;;;;;;;;5091694;28;19951;-62
2023/09/08 00:29:57;;;;;;;;;;;;;;;;;;5086873;28;19935;-60
2023/09/08 00:32:23;;;;;;;;;;;;;;;;;;5078048;28;19920;-61
2023/09/08 00:34:49;;;;;;;;;;;;;;;;;;5089412;28;19955;-60
2023/09/08 00:37:15;;;;;;;;;;;;;;;;;;5087578;28;20380;-61
2023/09/08 00:39:40;;;;;;;;;;;;;;;;;;5088003;28;19966;-60
2023/09/08 00:42:07;;;;;;;;;;;;;;;;;;5081260;28;19943;-61
2023/09/08 00:44:32;;;;;;;;;;;;;;;;;;5090975;28;19958;-61
2023/09/08 00:46:58;;;;;;;;;;;;;;;;;;5086718;28;19952;-60
2023/09/08 00:49:24;;;;;;;;;;;;;;;;;;5087657;28;20658;-60
2023/09/08 00:51:50;;;;;;;;;;;;;;;;;;5076794;28;19912;-60
2023/09/08 00:54:16;;;;;;;;;;;;;;;;;;5088200;28;20267;-60
2023/09/08 00:56:42;;;;;;;;;;;;;;;;;;5090047;28;20015;-60
2023/09/08 00:59:08;;;;;;;;;;;;;;;;;;5080717;28;19920;-60
2023/09/08 01:01:34;;;;;;;;;;;;;;;;;;5084251;28;19912;-60
2023/09/08 01:04:00;;;;;;;;;;;;;;;;;;5083383;28;19921;-60
2023/09/08 01:06:26;;;;;;;;;;;;;;;;;;5087521;28;19912;-60
2023/09/08 01:08:52;;;;;;;;;;;;;;;;;;5087682;28;20408;-61
2023/09/08 01:11:18;;;;;;;;;;;;;;;;;;5079578;28;20007;-61
2023/09/08 01:13:44;;;;;;;;;;;;;;;;;;5081893;28;19966;-60
2023/09/08 01:16:10;;;;;;;;;;;;;;;;;;5088752;28;19981;-60
2023/09/08 01:18:36;;;;;;;;;;;;;;;;;;5090915;28;20436;-62
2023/09/08 01:21:01;;;;;;;;;;;;;;;;;;5093852;28;19924;-61
2023/09/08 01:23:27;;;;;;;;;;;;;;;;;;5086927;28;19951;-61
2023/09/08 01:25:53;;;;;;;;;;;;;;;;;;5078112;28;19913;-60
2023/09/08 01:28:19;;;;;;;;;;;;;;;;;;5092070;28;20328;-60
2023/09/08 01:30:45;;;;;;;;;;;;;;;;;;5093220;28;19974;-60
2023/09/08 01:33:11;;;;;;;;;;;;;;;;;;5093376;28;20010;-60
2023/09/08 01:35:37;;;;;;;;;;;;;;;;;;5090998;28;20011;-61
2023/09/08 01:38:03;;;;;;;;;;;;;;;;;;5078480;28;19952;-60
2023/09/08 01:40:29;;;;;;;;;;;;;;;;;;5079073;28;20412;-61
2023/09/08 01:42:55;;;;;;;;;;;;;;;;;;5090534;28;19974;-61
2023/09/08 01:45:21;;;;;;;;;;;;;;;;;;5086222;28;20379;-62
2023/09/08 01:47:47;;;;;;;;;;;;;;;;;;5084802;28;19962;-62
2023/09/08 01:50:13;;;;;;;;;;;;;;;;;;5092776;28;19952;-62
2023/09/08 01:52:38;;;;;;;;;;;;;;;;;;5078376;28;20372;-61
2023/09/08 01:55:04;;;;;;;;;;;;;;;;;;5082987;28;20003;-62
2023/09/08 01:57:30;;;;;;;;;;;;;;;;;;5088132;28;20437;-60
2023/09/08 01:59:56;;;;;;;;;;;;;;;;;;5079130;28;19959;-60
2023/09/08 02:02:22;;;;;;;;;;;;;;;;;;5084418;28;19948;-60
2023/09/08 02:04:48;;;;;;;;;;;;;;;;;;5092070;28;19919;-60
2023/09/08 02:07:14;;;;;;;;;;;;;;;;;;5087520;28;20379;-60
2023/09/08 02:09:40;;;;;;;;;;;;;;;;;;5085820;28;19963;-60
2023/09/08 02:12:06;;;;;;;;;;;;;;;;;;5090048;28;19982;-60
2023/09/08 02:14:32;;;;;;;;;;;;;;;;;;5083027;28;20430;-61
2023/09/08 02:16:58;;;;;;;;;;;;;;;;;;5088622;28;19963;-60
2023/09/08 02:19:24;;;;;;;;;;;;;;;;;;5089033;28;19916;-61
2023/09/08 02:21:49;;;;;;;;;;;;;;;;;;5084202;28;19963;-60
2023/09/08 02:24:15;;;;;;;;;;;;;;;;;;5087441;28;19912;-60
2023/09/08 02:26:41;;;;;;;;;;;;;;;;;;5094467;28;19951;-60
2023/09/08 02:29:07;;;;;;;;;;;;;;;;;;5092045;28;19939;-60
2023/09/08 02:31:33;;;;;;;;;;;;;;;;;;5090493;28;20000;-60
2023/09/08 02:33:59;;;;;;;;;;;;;;;;;;5093661;28;20071;-62
2023/09/08 02:36:26;;;;;;;;;;;;;;;;;;5092832;28;19916;-60
2023/09/08 02:38:52;;;;;;;;;;;;;;;;;;5084837;28;20003;-60
2023/09/08 02:41:18;;;;;;;;;;;;;;;;;;5081787;28;20000;-61
2023/09/08 02:43:43;;;;;;;;;;;;;;;;;;5079928;28;19994;-60
2023/09/08 02:46:09;;;;;;;;;;;;;;;;;;5091142;28;20411;-61
2023/09/08 02:48:35;;;;;;;;;;;;;;;;;;5088821;28;19916;-60
2023/09/08 02:51:01;;;;;;;;;;;;;;;;;;5073183;28;20445;-60
2023/09/08 02:53:28;;;;;;;;;;;;;;;;;;5075594;28;19916;-61
2023/09/08 02:55:54;;;;;;;;;;;;;;;;;;5075832;28;19931;-60
2023/09/08 02:58:20;;;;;;;;;;;;;;;;;;5079494;28;19979;-61
2023/09/08 03:00:46;;;;;;;;;;;;;;;;;;5074189;28;20396;-62
2023/09/08 03:03:12;;;;;;;;;;;;;;;;;;5083878;28;19916;-62
2023/09/08 03:05:38;;;;;;;;;;;;;;;;;;5090837;28;20253;-62
2023/09/08 03:08:05;;;;;;;;;;;;;;;;;;5088604;28;19959;-62
2023/09/08 03:10:33;;;;;;;;;;;;;;;;;;5090325;28;19923;-62
2023/09/08 03:12:59;;;;;;;;;;;;;;;;;;5089339;28;19919;-62
2023/09/08 03:15:27;;;;;;;;;;;;;;;;;;5091445;28;19924;-62
2023/09/08 03:17:53;;;;;;;;;;;;;;;;;;5092472;28;19912;-62
2023/09/08 03:20:19;;;;;;;;;;;;;;;;;;5090170;28;20291;-61
2023/09/08 03:22:45;;;;;;;;;;;;;;;;;;5086965;28;20369;-62
2023/09/08 03:25:11;;;;;;;;;;;;;;;;;;5088325;28;20033;-59
2023/09/08 03:27:37;;;;;;;;;;;;;;;;;;5077435;28;19962;-62
2023/09/08 03:30:04;;;;;;;;;;;;;;;;;;5072739;28;20296;-62
2023/09/08 03:32:30;;;;;;;;;;;;;;;;;;5075444;28;20379;-62
2023/09/08 03:34:56;;;;;;;;;;;;;;;;;;5092391;28;19912;-60
2023/09/08 03:37:22;;;;;;;;;;;;;;;;;;5073495;28;20065;-62
2023/09/08 03:39:48;;;;;;;;;;;;;;;;;;5072795;28;19915;-62
2023/09/08 03:42:14;;;;;;;;;;;;;;;;;;5084340;28;19953;-62
2023/09/08 03:44:40;;;;;;;;;;;;;;;;;;5093013;28;19922;-62
2023/09/08 03:47:06;;;;;;;;;;;;;;;;;;5088901;28;19909;-62
2023/09/08 03:49:33;;;;;;;;;;;;;;;;;;5092564;28;19938;-62
2023/09/08 03:51:58;;;;;;;;;;;;;;;;;;5077124;28;19912;-62
2023/09/08 03:54:24;;;;;;;;;;;;;;;;;;5084444;28;20485;-62
2023/09/08 03:56:50;;;;;;;;;;;;;;;;;;5086612;28;19919;-62
2023/09/08 03:59:16;;;;;;;;;;;;;;;;;;5091703;28;20283;-61
2023/09/08 04:01:42;;;;;;;;;;;;;;;;;;5091587;28;19958;-62
2023/09/08 04:04:08;;;;;;;;;;;;;;;;;;5076188;28;19912;-62
2023/09/08 04:06:34;;;;;;;;;;;;;;;;;;5082440;28;20411;-62
2023/09/08 04:09:00;;;;;;;;;;;;;;;;;;5073170;28;20011;-62
2023/09/08 04:11:26;;;;;;;;;;;;;;;;;;5077188;28;19915;-62
2023/09/08 04:13:52;;;;;;;;;;;;;;;;;;5079286;28;19944;-61
2023/09/08 04:16:18;;;;;;;;;;;;;;;;;;5081626;28;19923;-61
2023/09/08 04:18:44;;;;;;;;;;;;;;;;;;5089238;28;19953;-61
2023/09/08 04:21:10;;;;;;;;;;;;;;;;;;5083806;28;20424;-62
2023/09/08 04:23:36;;;;;;;;;;;;;;;;;;5078680;28;19959;-62
2023/09/08 04:26:02;;;;;;;;;;;;;;;;;;5085997;28;19912;-62
2023/09/08 04:28:28;;;;;;;;;;;;;;;;;;5085054;28;20149;-62
2023/09/08 04:30:54;;;;;;;;;;;;;;;;;;5076877;28;19930;-62
2023/09/08 04:33:20;;;;;;;;;;;;;;;;;;5086648;28;19916;-62
2023/09/08 04:35:45;;;;;;;;;;;;;;;;;;5074044;28;19982;-62
2023/09/08 04:38:11;;;;;;;;;;;;;;;;;;5084768;28;19973;-62
2023/09/08 04:40:37;;;;;;;;;;;;;;;;;;5081600;28;19922;-61
2023/09/08 04:43:03;;;;;;;;;;;;;;;;;;5087297;28;19925;-62
2023/09/08 04:45:29;;;;;;;;;;;;;;;;;;5082950;28;20328;-62
2023/09/08 04:47:55;;;;;;;;;;;;;;;;;;5078169;28;19912;-60
2023/09/08 04:50:21;;;;;;;;;;;;;;;;;;5082197;28;20397;-62
2023/09/08 04:52:47;;;;;;;;;;;;;;;;;;5080501;28;20025;-62
2023/09/08 04:55:13;;;;;;;;;;;;;;;;;;5081510;28;20305;-62
2023/09/08 04:57:39;;;;;;;;;;;;;;;;;;5078683;28;19959;-61
2023/09/08 05:00:05;;;;;;;;;;;;;;;;;;5080768;28;20003;-61
2023/09/08 05:02:30;;;;;;;;;;;;;;;;;;5087213;28;20394;-62
2023/09/08 05:04:56;;;;;;;;;;;;;;;;;;5079617;28;19936;-60
2023/09/08 05:07:22;;;;;;;;;;;;;;;;;;5079886;28;20303;-62
2023/09/08 05:09:48;;;;;;;;;;;;;;;;;;5086221;28;20001;-59
2023/09/08 05:12:14;;;;;;;;;;;;;;;;;;5083270;28;19916;-61
2023/09/08 05:14:41;;;;;;;;;;;;;;;;;;5079399;28;20672;-58
2023/09/08 05:17:07;;;;;;;;;;;;;;;;;;5077237;28;20015;-59
2023/09/08 05:19:32;;;;;;;;;;;;;;;;;;5085800;28;20027;-61
2023/09/08 05:21:58;;;;;;;;;;;;;;;;;;5077297;28;20307;-60
2023/09/08 05:24:26;;;;;;;;;;;;;;;;;;5080576;28;19919;-60
2023/09/08 05:26:52;;;;;;;;;;;;;;;;;;5083022;28;20236;-60
2023/09/08 05:29:18;;;;;;;;;;;;;;;;;;5078184;28;19962;-61
2023/09/08 05:31:44;;;;;;;;;;;;;;;;;;5077687;28;20007;-61
2023/09/08 05:34:10;;;;;;;;;;;;;;;;;;5079823;28;20009;-61
2023/09/08 05:36:38;;;;;;;;;;;;;;;;;;5077126;28;19922;-61
2023/09/08 05:39:03;;;;;;;;;;;;;;;;;;5078949;28;19992;-61
2023/09/08 05:41:29;;;;;;;;;;;;;;;;;;5084628;28;19913;-61
2023/09/08 05:43:55;;;;;;;;;;;;;;;;;;5074980;28;19943;-60
2023/09/08 05:46:21;;;;;;;;;;;;;;;;;;5083203;28;19922;-61
2023/09/08 05:48:47;;;;;;;;;;;;;;;;;;5073165;28;19912;-60
2023/09/08 05:51:13;;;;;;;;;;;;;;;;;;5080022;28;19908;-61
2023/09/08 05:53:40;;;;;;;;;;;;;;;;;;5090225;28;19971;-61
2023/09/08 05:56:06;;;;;;;;;;;;;;;;;;5085702;28;19912;-61
2023/09/08 05:58:33;;;;;;;;;;;;;;;;;;5079723;28;19948;-61
2023/09/08 06:00:59;;;;;;;;;;;;;;;;;;5089450;28;20309;-60
2023/09/08 06:03:26;;;;;;;;;;;;;;;;;;5079068;28;19912;-60
2023/09/08 06:05:52;;;;;;;;;;;;;;;;;;5082290;28;19940;-61
2023/09/08 06:08:18;;;;;;;;;;;;;;;;;;5091479;28;19982;-61
2023/09/08 06:10:44;;;;;;;;;;;;;;;;;;5081807;28;19924;-61
2023/09/08 06:13:10;;;;;;;;;;;;;;;;;;5087817;28;20011;-61
2023/09/08 06:15:36;;;;;;;;;;;;;;;;;;5091295;28;20309;-60
2023/09/08 06:18:02;;;;;;;;;;;;;;;;;;5074897;28;20060;-61
2023/09/08 06:20:28;;;;;;;;;;;;;;;;;;5072123;28;19932;-61
2023/09/08 06:22:54;;;;;;;;;;;;;;;;;;5083787;28;19955;-60
2023/09/08 06:25:19;;;;;;;;;;;;;;;;;;5074612;28;20386;-61
2023/09/08 06:27:45;;;;;;;;;;;;;;;;;;5072926;28;20055;-61
2023/09/08 06:30:13;;;;;;;;;;;;;;;;;;5078877;28;20004;-64
2023/09/08 06:32:39;;;;;;;;;;;;;;;;;;5075789;28;20003;-62
2023/09/08 06:35:05;;;;;;;;;;;;;;;;;;5080513;28;19995;-61
2023/09/08 06:37:31;;;;;;;;;;;;;;;;;;5082317;28;19912;-62
2023/09/08 06:39:57;;;;;;;;;;;;;;;;;;5084305;28;19919;-62
2023/09/08 06:42:23;;;;;;;;;;;;;;;;;;5082010;28;19948;-62
2023/09/08 06:44:48;;;;;;;;;;;;;;;;;;5072541;28;20364;-62
2023/09/08 06:47:15;;;;;;;;;;;;;;;;;;5071501;28;19919;-60
2023/09/08 06:49:41;;;;;;;;;;;;;;;;;;5085047;28;19909;-62
2023/09/08 06:52:07;;;;;;;;;;;;;;;;;;5081780;28;20014;-62
2023/09/08 06:54:33;;;;;;;;;;;;;;;;;;5076416;28;20271;-62
2023/09/08 06:56:59;;;;;;;;;;;;;;;;;;5083708;28;20002;-62
2023/09/08 06:59:25;;;;;;;;;;;;;;;;;;5085631;28;19999;-62
2023/09/08 07:01:51;;;;;;;;;;;;;;;;;;5084804;28;19939;-61
2023/09/08 07:04:17;;;;;;;;;;;;;;;;;;5076963;28;19912;-63
2023/09/08 07:06:44;;;;;;;;;;;;;;;;;;5082307;28;19908;-62
2023/09/08 07:09:10;;;;;;;;;;;;;;;;;;5071920;28;19909;-62
2023/09/08 07:11:36;;;;;;;;;;;;;;;;;;5074174;28;20008;-62
2023/09/08 07:14:02;;;;;;;;;;;;;;;;;;5071288;28;19938;-61
2023/09/08 07:16:28;;;;;;;;;;;;;;;;;;5071863;28;19939;-62
2023/09/08 07:18:54;;;;;;;;;;;;;;;;;;5081789;28;20404;-62
2023/09/08 07:21:20;;;;;;;;;;;;;;;;;;5076797;28;19966;-62
2023/09/08 07:23:46;;;;;;;;;;;;;;;;;;5077899;28;20279;-63
2023/09/08 07:26:12;;;;;;;;;;;;;;;;;;5091550;28;19908;-62
2023/09/08 07:28:38;;;;;;;;;;;;;;;;;;5073686;28;19916;-62
2023/09/08 07:31:04;;;;;;;;;;;;;;;;;;5082351;28;19919;-60
2023/09/08 07:33:30;;;;;;;;;;;;;;;;;;5083351;28;19999;-61
2023/09/08 07:35:55;;;;;;;;;;;;;;;;;;5091255;28;19986;-61
2023/09/08 07:38:21;;;;;;;;;;;;;;;;;;5071766;28;19999;-61
2023/09/08 07:40:47;;;;;;;;;;;;;;;;;;5081818;28;19923;-61
2023/09/08 07:43:13;;;;;;;;;;;;;;;;;;5078281;28;19908;-61
2023/09/08 07:45:40;;;;;;;;;;;;;;;;;;5088049;28;20019;-60
2023/09/08 07:48:06;;;;;;;;;;;;;;;;;;5086477;28;19924;-61
2023/09/08 07:50:32;;;;;;;;;;;;;;;;;;5083750;28;19912;-61
2023/09/08 07:52:58;;;;;;;;;;;;;;;;;;5077784;28;20387;-61
2023/09/08 07:55:26;;;;;;;;;;;;;;;;;;5079884;28;20365;-60
2023/09/08 07:57:52;;;;;;;;;;;;;;;;;;5085464;28;20275;-61
2023/09/08 08:00:18;;;;;;;;;;;;;;;;;;5083351;28;19927;-61
2023/09/08 08:02:44;;;;;;;;;;;;;;;;;;5089814;28;20387;-61
2023/09/08 08:05:10;;;;;;;;;;;;;;;;;;5091983;28;19966;-61
2023/09/08 08:07:36;;;;;;;;;;;;;;;;;;5078006;28;19908;-62
2023/09/08 08:10:02;;;;;;;;;;;;;;;;;;5079188;28;19908;-62
2023/09/08 08:12:28;;;;;;;;;;;;;;;;;;5089271;28;19912;-61
2023/09/08 08:14:54;;;;;;;;;;;;;;;;;;5071774;28;19951;-62
2023/09/08 08:17:20;;;;;;;;;;;;;;;;;;5082389;28;19962;-62
2023/09/08 08:19:46;;;;;;;;;;;;;;;;;;5079563;28;19919;-61
2023/09/08 08:22:12;;;;;;;;;;;;;;;;;;5086501;28;19916;-61
2023/09/08 08:24:38;;;;;;;;;;;;;;;;;;5081291;28;19912;-61
2023/09/08 08:27:04;;;;;;;;;;;;;;;;;;5073793;28;20401;-61
2023/09/08 08:29:30;;;;;;;;;;;;;;;;;;5080806;28;19999;-61
2023/09/08 08:31:56;;;;;;;;;;;;;;;;;;5073291;28;19963;-62
2023/09/08 08:34:22;;;;;;;;;;;;;;;;;;5083496;28;20415;-63
2023/09/08 08:36:48;;;;;;;;;;;;;;;;;;5077261;28;19916;-62
2023/09/08 08:39:14;;;;;;;;;;;;;;;;;;5078456;28;19995;-63
2023/09/08 08:41:40;;;;;;;;;;;;;;;;;;5076255;28;19915;-63
2023/09/08 08:44:06;;;;;;;;;;;;;;;;;;5079245;28;19909;-63
2023/09/08 08:46:33;;;;;;;;;;;;;;;;;;5072128;28;19954;-64
2023/09/08 08:48:59;;;;;;;;;;;;;;;;;;5078923;28;19999;-63
2023/09/08 08:51:25;;;;;;;;;;;;;;;;;;5076362;28;19951;-59
2023/09/08 08:53:51;;;;;;;;;;;;;;;;;;5077553;28;20376;-60
2023/09/08 08:56:18;;;;;;;;;;;;;;;;;;5089564;28;19923;-60
2023/09/08 08:58:45;;;;;;;;;;;;;;;;;;5079225;28;20356;-59
2023/09/08 09:01:11;;;;;;;;;;;;;;;;;;5084319;28;19959;-61
2023/09/08 09:03:37;;;;;;;;;;;;;;;;;;5071226;28;20328;-59
2023/09/08 09:06:03;;;;;;;;;;;;;;;;;;5084483;28;19995;-60
2023/09/08 09:08:29;;;;;;;;;;;;;;;;;;5078091;28;20016;-60
2023/09/08 09:10:55;;;;;;;;;;;;;;;;;;5076828;28;20045;-60
2023/09/08 09:13:21;;;;;;;;;;;;;;;;;;5091377;28;20425;-60
2023/09/08 09:15:48;;;;;;;;;;;;;;;;;;5072087;28;19960;-59
2023/09/08 09:18:14;;;;;;;;;;;;;;;;;;5075346;28;19916;-60
2023/09/08 09:20:41;;;;;;;;;;;;;;;;;;5083726;28;19985;-59
2023/09/08 09:23:07;;;;;;;;;;;;;;;;;;5083810;28;20033;-60
2023/09/08 09:25:33;;;;;;;;;;;;;;;;;;5092783;28;19991;-60
2023/09/08 09:27:58;;;;;;;;;;;;;;;;;;5083001;28;20279;-60
2023/09/08 09:30:24;;;;;;;;;;;;;;;;;;5091355;28;20265;-60
2023/09/08 09:32:50;;;;;;;;;;;;;;;;;;5094445;28;19947;-60
2023/09/08 09:35:17;;;;;;;;;;;;;;;;;;5088203;28;20395;-59
2023/09/08 09:37:43;;;;;;;;;;;;;;;;;;5079183;28;19916;-60
2023/09/08 09:40:10;;;;;;;;;;;;;;;;;;5080623;28;19915;-59
2023/09/08 09:42:36;;;;;;;;;;;;;;;;;;5093449;28;20294;-59
2023/09/08 09:45:02;;;;;;;;;;;;;;;;;;5080814;28;19908;-60
2023/09/08 09:47:28;;;;;;;;;;;;;;;;;;5080273;28;19995;-60
2023/09/08 09:49:54;;;;;;;;;;;;;;;;;;5080302;28;20299;-59
2023/09/08 09:52:20;;;;;;;;;;;;;;;;;;5080472;28;20003;-59
2023/09/08 09:54:46;;;;;;;;;;;;;;;;;;5080583;28;19921;-57
2023/09/08 09:57:12;;;;;;;;;;;;;;;;;;5080074;28;20024;-60
2023/09/08 09:59:38;;;;;;;;;;;;;;;;;;5072479;28;19917;-60
2023/09/08 10:02:03;;;;;;;;;;;;;;;;;;5073917;28;19908;-59
2023/09/08 10:04:29;;;;;;;;;;;;;;;;;;5079623;28;20352;-59
2023/09/08 10:06:57;;;;;;;;;;;;;;;;;;5087318;28;19951;-59
2023/09/08 10:09:23;;;;;;;;;;;;;;;;;;5075343;28;19919;-59
2023/09/08 10:11:48;;;;;;;;;;;;;;;;;;5085740;28;19913;-60
2023/09/08 10:14:14;;;;;;;;;;;;;;;;;;5079491;28;19908;-59
2023/09/08 10:16:41;;;;;;;;;;;;;;;;;;5080787;28;20406;-60
2023/09/08 10:19:06;;;;;;;;;;;;;;;;;;5080740;28;19930;-60
2023/09/08 10:21:32;;;;;;;;;;;;;;;;;;5072956;28;19920;-59
2023/09/08 10:23:58;;;;;;;;;;;;;;;;;;5089922;28;19974;-58
2023/09/08 10:26:24;;;;;;;;;;;;;;;;;;5081197;28;20359;-59
2023/09/08 10:28:51;;;;;;;;;;;;;;;;;;5088634;28;20047;-59
2023/09/08 10:31:17;;;;;;;;;;;;;;;;;;5080812;28;20284;-59
2023/09/08 10:33:42;;;;;;;;;;;;;;;;;;5080536;28;19914;-60
2023/09/08 10:36:09;;;;;;;;;;;;;;;;;;5091769;28;19913;-60
2023/09/08 10:38:35;;;;;;;;;;;;;;;;;;5080485;28;19908;-59
2023/09/08 10:41:01;;;;;;;;;;;;;;;;;;5083010;28;19934;-59
2023/09/08 10:43:27;;;;;;;;;;;;;;;;;;5079993;28;19915;-59
2023/09/08 10:45:53;;;;;;;;;;;;;;;;;;5079905;28;19917;-59
2023/09/08 10:48:19;;;;;;;;;;;;;;;;;;5087555;28;19916;-59
2023/09/08 10:50:45;;;;;;;;;;;;;;;;;;5077111;28;19918;-59
2023/09/08 10:53:11;;;;;;;;;;;;;;;;;;5087105;28;19912;-60
2023/09/08 10:55:37;;;;;;;;;;;;;;;;;;5084549;28;19941;-59
2023/09/08 10:58:03;;;;;;;;;;;;;;;;;;5073863;28;19920;-59
2023/09/08 11:00:29;;;;;;;;;;;;;;;;;;5083478;28;19908;-59
2023/09/08 11:02:55;;;;;;;;;;;;;;;;;;5077010;28;20342;-60
2023/09/08 11:05:21;;;;;;;;;;;;;;;;;;5083537;28;19923;-59
2023/09/08 11:07:49;;;;;;;;;;;;;;;;;;5081890;28;20378;-59
2023/09/08 11:10:15;;;;;;;;;;;;;;;;;;5092473;28;19908;-61
2023/09/08 11:12:40;;;;;;;;;;;;;;;;;;5078809;28;19908;-61
2023/09/08 11:15:08;;;;;;;;;;;;;;;;;;5092714;28;19912;-59
2023/09/08 11:17:34;;;;;;;;;;;;;;;;;;5078773;28;20283;-60
2023/09/08 11:20:00;;;;;;;;;;;;;;;;;;5082332;28;19920;-59
2023/09/08 11:22:26;;;;;;;;;;;;;;;;;;5073229;28;20011;-60
2023/09/08 11:24:52;;;;;;;;;;;;;;;;;;5083535;28;20358;-60
2023/09/08 11:27:18;;;;;;;;;;;;;;;;;;5087434;28;20295;-59
2023/09/08 11:29:44;;;;;;;;;;;;;;;;;;5083530;28;19915;-60
2023/09/08 11:32:10;;;;;;;;;;;;;;;;;;5078223;28;19912;-59
2023/09/08 11:34:36;;;;;;;;;;;;;;;;;;5092389;28;19916;-59
2023/09/08 11:37:02;;;;;;;;;;;;;;;;;;5083487;28;19919;-59
2023/09/08 11:39:28;;;;;;;;;;;;;;;;;;5074364;28;19913;-59
2023/09/08 11:41:54;;;;;;;;;;;;;;;;;;5083289;28;19991;-59
2023/09/08 11:44:20;;;;;;;;;;;;;;;;;;5080653;28;19978;-59
2023/09/08 11:46:46;;;;;;;;;;;;;;;;;;5071477;28;20474;-59
2023/09/08 11:49:12;;;;;;;;;;;;;;;;;;5073487;28;19961;-59
2023/09/08 11:51:38;;;;;;;;;;;;;;;;;;5074549;28;20022;-60
2023/09/08 11:54:04;;;;;;;;;;;;;;;;;;5083166;28;19938;-58
2023/09/08 11:56:31;;;;;;;;;;;;;;;;;;5082323;28;19922;-60
2023/09/08 11:58:57;;;;;;;;;;;;;;;;;;5075017;28;19920;-60
2023/09/08 12:01:23;;;;;;;;;;;;;;;;;;5079140;28;19980;-60
2023/09/08 12:03:49;;;;;;;;;;;;;;;;;;5073487;28;19965;-60
2023/09/08 12:06:15;;;;;;;;;;;;;;;;;;5083104;28;20699;-60
2023/09/08 12:08:41;;;;;;;;;;;;;;;;;;5081991;28;19961;-60
2023/09/08 12:11:08;;;;;;;;;;;;;;;;;;5082731;28;19964;-58
2023/09/08 12:13:34;;;;;;;;;;;;;;;;;;5075825;28;19913;-59
2023/09/08 12:16:00;;;;;;;;;;;;;;;;;;5080135;28;19967;-58
2023/09/08 12:18:26;;;;;;;;;;;;;;;;;;5079111;28;20015;-58
2023/09/08 12:20:51;;;;;;;;;;;;;;;;;;5077202;28;19968;-62
2023/09/08 12:23:17;;;;;;;;;;;;;;;;;;5076782;28;19959;-60
2023/09/08 12:25:43;;;;;;;;;;;;;;;;;;5078876;28;20371;-60
2023/09/08 12:28:10;;;;;;;;;;;;;;;;;;5073798;28;20334;-60
2023/09/08 12:30:36;;;;;;;;;;;;;;;;;;5075289;28;19912;-60
2023/09/08 12:33:02;;;;;;;;;;;;;;;;;;5089613;28;20342;-60
2023/09/08 12:35:28;;;;;;;;;;;;;;;;;;5077139;28;19916;-60
2023/09/08 12:37:54;;;;;;;;;;;;;;;;;;5071013;28;20322;-60
2023/09/08 12:40:20;;;;;;;;;;;;;;;;;;5074568;28;19912;-60
2023/09/08 12:42:47;;;;;;;;;;;;;;;;;;5078093;28;19916;-60
2023/09/08 12:45:12;;;;;;;;;;;;;;;;;;5079617;28;19920;-60
2023/09/08 12:47:38;;;;;;;;;;;;;;;;;;5079774;28;19912;-61
2023/09/08 12:50:04;;;;;;;;;;;;;;;;;;5078567;28;19952;-60
2023/09/08 12:52:31;;;;;;;;;;;;;;;;;;5080463;28;20303;-61
2023/09/08 12:54:57;;;;;;;;;;;;;;;;;;5083412;28;20448;-61
2023/09/08 12:57:23;;;;;;;;;;;;;;;;;;5083262;28;20032;-60
2023/09/08 12:59:51;;;;;;;;;;;;;;;;;;5085433;28;19957;-61
2023/09/08 13:02:17;;;;;;;;;;;;;;;;;;5081583;28;19921;-61
2023/09/08 13:04:48;;;;;;;;;;;;;;;;;;5077752;28;19956;-60
2023/09/08 13:07:14;;;;;;;;;;;;;;;;;;5079095;28;19912;-61
2023/09/08 13:09:40;;;;;;;;;;;;;;;;;;5083878;28;19998;-61
2023/09/08 13:12:05;;;;;;;;;;;;;;;;;;5089818;28;20367;-61
2023/09/08 13:14:31;;;;;;;;;;;;;;;;;;5085466;28;19966;-61
2023/09/08 13:16:57;;;;;;;;;;;;;;;;;;5083066;28;19954;-60
2023/09/08 13:19:23;;;;;;;;;;;;;;;;;;5083368;28;20283;-61
2023/09/08 13:21:49;;;;;;;;;;;;;;;;;;5081014;28;19973;-61
2023/09/08 13:24:15;;;;;;;;;;;;;;;;;;5092312;28;19963;-61
2023/09/08 13:26:41;;;;;;;;;;;;;;;;;;5079745;28;19960;-61
2023/09/08 13:29:07;;;;;;;;;;;;;;;;;;5081799;28;19912;-61
2023/09/08 13:31:33;;;;;;;;;;;;;;;;;;5076916;28;20015;-60
2023/09/08 13:33:58;;;;;;;;;;;;;;;;;;5083087;28;19922;-58
2023/09/08 13:36:24;;;;;;;;;;;;;;;;;;5089234;28;19918;-60
2023/09/08 13:38:50;;;;;;;;;;;;;;;;;;5087266;28;20383;-60
2023/09/08 13:41:16;;;;;;;;;;;;;;;;;;5088323;28;20319;-59
2023/09/08 13:43:42;;;;;;;;;;;;;;;;;;5082331;28;19948;-59
2023/09/08 13:46:08;;;;;;;;;;;;;;;;;;5085049;28;20097;-58
2023/09/08 13:48:34;;;;;;;;;;;;;;;;;;5081816;28;20398;-58
2023/09/08 13:51:00;;;;;;;;;;;;;;;;;;5087738;28;20043;-58
2023/09/08 13:53:26;;;;;;;;;;;;;;;;;;5074374;28;19913;-59
2023/09/08 13:55:52;;;;;;;;;;;;;;;;;;5080727;28;19924;-59
2023/09/08 13:58:18;;;;;;;;;;;;;;;;;;5083823;28;19920;-59
2023/09/08 14:00:44;;;;;;;;;;;;;;;;;;5079095;28;19978;-59
2023/09/08 14:03:10;;;;;;;;;;;;;;;;;;5087079;28;19954;-59
2023/09/08 14:05:36;;;;;;;;;;;;;;;;;;5086483;28;19944;-58
2023/09/08 14:08:02;;;;;;;;;;;;;;;;;;5091589;28;20601;-58
2023/09/08 14:10:28;;;;;;;;;;;;;;;;;;5075339;28;19919;-59
2023/09/08 14:12:53;;;;;;;;;;;;;;;;;;5084769;28;20358;-58
2023/09/08 14:15:19;;;;;;;;;;;;;;;;;;5086717;28;19940;-58
2023/09/08 14:17:45;;;;;;;;;;;;;;;;;;5083234;28;19922;-59
2023/09/08 14:20:11;;;;;;;;;;;;;;;;;;5083746;28;19986;-58
2023/09/08 14:22:38;;;;;;;;;;;;;;;;;;5092912;28;19990;-58
2023/09/08 14:25:04;;;;;;;;;;;;;;;;;;5084248;28;19916;-58
2023/09/08 14:27:30;;;;;;;;;;;;;;;;;;5086630;28;19985;-58
2023/09/08 14:29:56;;;;;;;;;;;;;;;;;;5081214;28;20017;-62
2023/09/08 14:32:22;;;;;;;;;;;;;;;;;;5081524;28;19938;-61
2023/09/08 14:34:48;;;;;;;;;;;;;;;;;;5078009;28;19974;-62
2023/09/08 14:37:14;;;;;;;;;;;;;;;;;;5090606;28;19972;-61
2023/09/08 14:39:39;;;;;;;;;;;;;;;;;;5084350;28;19927;-60
2023/09/08 14:42:05;;;;;;;;;;;;;;;;;;5086789;28;19908;-60
2023/09/08 14:44:31;;;;;;;;;;;;;;;;;;5072703;28;20395;-61
2023/09/08 14:46:57;;;;;;;;;;;;;;;;;;5081583;28;19948;-60
2023/09/08 14:49:23;;;;;;;;;;;;;;;;;;5073920;28;20254;-61
2023/09/08 14:51:49;;;;;;;;;;;;;;;;;;5075393;28;19912;-61
2023/09/08 14:54:15;;;;;;;;;;;;;;;;;;5086055;28;20295;-60
2023/09/08 14:56:41;;;;;;;;;;;;;;;;;;5073893;28;19916;-60
2023/09/08 14:59:07;;;;;;;;;;;;;;;;;;5072343;28;19908;-60
2023/09/08 15:01:33;;;;;;;;;;;;;;;;;;5076731;28;19955;-61
2023/09/08 15:03:58;;;;;;;;;;;;;;;;;;5077501;28;20363;-60
2023/09/08 15:06:24;;;;;;;;;;;;;;;;;;5076728;28;19920;-61
2023/09/08 15:08:50;;;;;;;;;;;;;;;;;;5073884;28;20383;-60
2023/09/08 15:11:16;;;;;;;;;;;;;;;;;;5087685;28;20061;-61
2023/09/08 15:13:42;;;;;;;;;;;;;;;;;;5081703;28;19912;-61
2023/09/08 15:16:08;;;;;;;;;;;;;;;;;;5078478;28;20379;-61
2023/09/08 15:18:34;;;;;;;;;;;;;;;;;;5077833;28;19989;-60
2023/09/08 15:21:00;;;;;;;;;;;;;;;;;;5082661;28;19959;-60
2023/09/08 15:23:26;;;;;;;;;;;;;;;;;;5079682;28;19938;-61
2023/09/08 15:25:52;;;;;;;;;;;;;;;;;;5080630;28;20301;-61
2023/09/08 15:28:18;;;;;;;;;;;;;;;;;;5085107;28;19951;-61
2023/09/08 15:30:44;;;;;;;;;;;;;;;;;;5077452;28;19948;-61
2023/09/08 15:33:10;;;;;;;;;;;;;;;;;;5087529;28;20005;-60
2023/09/08 15:35:35;;;;;;;;;;;;;;;;;;5079284;28;20479;-60
2023/09/08 15:38:01;;;;;;;;;;;;;;;;;;5076776;28;19913;-61
2023/09/08 15:40:27;;;;;;;;;;;;;;;;;;5075068;28;19993;-60
2023/09/08 15:42:53;;;;;;;;;;;;;;;;;;5078909;28;19912;-60
2023/09/08 15:45:19;;;;;;;;;;;;;;;;;;5085699;28;19916;-59
2023/09/08 15:47:46;;;;;;;;;;;;;;;;;;5073914;28;19960;-60
2023/09/08 15:50:11;;;;;;;;;;;;;;;;;;5079953;28;19946;-61
2023/09/08 15:52:37;;;;;;;;;;;;;;;;;;5082315;28;20392;-61
2023/09/08 15:55:04;;;;;;;;;;;;;;;;;;5083266;28;19919;-61
2023/09/08 15:57:30;;;;;;;;;;;;;;;;;;5079068;28;20031;-61
2023/09/08 15:59:56;;;;;;;;;;;;;;;;;;5082628;28;20316;-61
2023/09/08 16:02:22;;;;;;;;;;;;;;;;;;5079160;28;19916;-61
2023/09/08 16:04:48;;;;;;;;;;;;;;;;;;5086955;28;19916;-61
2023/09/08 16:07:14;;;;;;;;;;;;;;;;;;5082012;28;19983;-61
2023/09/08 16:09:40;;;;;;;;;;;;;;;;;;5079564;28;20001;-61
2023/09/08 16:12:05;;;;;;;;;;;;;;;;;;5073544;28;19916;-60
2023/09/08 16:14:31;;;;;;;;;;;;;;;;;;5078016;28;19990;-61
2023/09/08 16:16:57;;;;;;;;;;;;;;;;;;5078408;28;20011;-61
2023/09/08 16:19:23;;;;;;;;;;;;;;;;;;5075774;28;20379;-61
2023/09/08 16:21:49;;;;;;;;;;;;;;;;;;5075481;28;20018;-61
2023/09/08 16:24:15;;;;;;;;;;;;;;;;;;5083132;28;19916;-61
2023/09/08 16:26:41;;;;;;;;;;;;;;;;;;5080917;28;19916;-63
2023/09/08 16:29:07;;;;;;;;;;;;;;;;;;5078946;28;19913;-63
2023/09/08 16:31:33;;;;;;;;;;;;;;;;;;5080404;28;19985;-61
2023/09/08 16:33:59;;;;;;;;;;;;;;;;;;5081277;28;19959;-61
2023/09/08 16:36:24;;;;;;;;;;;;;;;;;;5086559;28;19924;-61